Time;durP1;ratioP1;P1;durP2;ratioP2;P2;SDS_P1;SDS_P2;PMS_P1;PMS_P2;Temp;Humidity;BMP_temperature;BMP_pressure;BME280_temperature;BME280_humidity;BME280_pressure;Samples;Min_cycle;Max_cycle;Signal;HPM_P1;HPM_P2
2022/04/23 00:02:17;;;;;;;10.17;9.17;;;10.60;99.90;;;;;;5063416;28;20259;-78
2022/04/23 00:04:44;;;;;;;10.13;9.13;;;10.60;99.90;;;;;;5069466;28;20218;-78
2022/04/23 00:07:10;;;;;;;10.60;9.57;;;10.50;99.90;;;;;;5065843;28;20199;-78
2022/04/23 00:09:37;;;;;;;13.13;11.27;;;10.50;99.90;;;;;;5074237;28;20194;-78
2022/04/23 00:12:05;;;;;;;8.80;7.77;;;10.50;99.90;;;;;;5089317;28;20207;-77
2022/04/23 00:14:33;;;;;;;9.70;8.57;;;10.50;99.90;;;;;;5085904;28;20702;-78
2022/04/23 00:17:02;;;;;;;10.60;9.50;;;10.50;99.90;;;;;;5090402;28;20189;-79
2022/04/23 00:19:28;;;;;;;11.50;9.13;;;10.40;99.90;;;;;;5075614;28;20225;-77
2022/04/23 00:21:55;;;;;;;12.07;10.53;;;10.40;99.90;;;;;;5085292;28;20186;-78
2022/04/23 00:24:22;;;;;;;11.10;9.70;;;10.30;99.90;;;;;;5098533;28;20251;-78
2022/04/23 00:26:49;;;;;;;12.43;11.23;;;10.30;99.90;;;;;;5092924;28;20240;-78
2022/04/23 00:29:17;;;;;;;12.50;11.20;;;10.30;99.90;;;;;;5078592;28;20585;-77
2022/04/23 00:31:44;;;;;;;10.80;9.80;;;10.30;99.90;;;;;;5080634;28;20584;-77
2022/04/23 00:34:12;;;;;;;11.47;10.37;;;10.20;99.90;;;;;;5085081;28;20569;-78
2022/04/23 00:36:39;;;;;;;11.57;10.47;;;10.10;99.90;;;;;;5078198;28;20269;-76
2022/04/23 00:39:06;;;;;;;11.77;10.70;;;10.10;99.90;;;;;;5082446;28;20637;-78
2022/04/23 00:41:45;;;;;;;12.33;10.80;;;10.10;99.90;;;;;;5086224;28;20235;-77
2022/04/23 00:44:13;;;;;;;13.03;11.83;;;10.00;99.90;;;;;;5089734;28;20706;-78
2022/04/23 00:46:40;;;;;;;12.40;11.20;;;9.90;99.90;;;;;;5093010;28;20193;-78
2022/04/23 00:49:06;;;;;;;10.87;9.77;;;9.80;99.90;;;;;;5083889;28;20265;-78
2022/04/23 00:51:35;;;;;;;14.13;10.73;;;9.80;99.90;;;;;;5078047;28;20216;-77
2022/04/23 00:54:07;;;;;;;12.27;10.83;;;9.70;99.90;;;;;;5085911;28;20205;-78
2022/04/23 00:56:34;;;;;;;13.97;11.00;;;9.60;99.90;;;;;;5088886;28;20197;-77
2022/04/23 00:59:04;;;;;;;13.70;12.10;;;9.70;99.90;;;;;;5086577;28;20231;-78
2022/04/23 01:01:31;;;;;;;11.40;10.20;;;9.60;99.90;;;;;;5091772;28;20217;-77
2022/04/23 01:04:02;;;;;;;11.27;10.00;;;9.60;99.90;;;;;;5082335;28;20314;-78
2022/04/23 01:06:34;;;;;;;14.17;12.77;;;9.50;99.90;;;;;;5085184;28;20299;-77
2022/04/23 01:09:04;;;;;;;15.33;13.83;;;9.50;99.90;;;;;;5085814;28;20666;-78
2022/04/23 01:11:32;;;;;;;11.80;10.20;;;9.40;99.90;;;;;;5075627;28;20224;-78
2022/04/23 01:14:00;;;;;;;13.33;10.87;;;9.40;99.90;;;;;;5081520;28;20614;-78
2022/04/23 01:16:26;;;;;;;14.07;10.57;;;9.40;99.90;;;;;;5079515;28;20198;-78
2022/04/23 01:18:53;;;;;;;15.70;14.13;;;9.30;99.90;;;;;;5088629;28;20655;-79
2022/04/23 01:21:22;;;;;;;14.53;13.13;;;9.30;99.90;;;;;;5078222;28;20662;-78
2022/04/23 01:23:53;;;;;;;15.33;13.47;;;9.20;99.90;;;;;;5075892;28;20225;-77
2022/04/23 01:26:27;;;;;;;14.20;12.70;;;9.10;99.90;;;;;;5075646;28;20190;-78
2022/04/23 01:28:55;;;;;;;14.67;11.37;;;9.00;99.90;;;;;;5088169;28;20275;-77
2022/04/23 01:31:23;;;;;;;14.10;11.00;;;8.90;99.90;;;;;;5079439;28;20698;-78
2022/04/23 01:33:50;;;;;;;14.40;12.00;;;8.80;99.90;;;;;;5081941;28;20918;-78
2022/04/23 01:36:17;;;;;;;15.67;11.87;;;8.80;99.90;;;;;;5082234;28;20217;-78
2022/04/23 01:38:46;;;;;;;14.73;11.43;;;8.80;99.90;;;;;;5082537;28;20749;-77
2022/04/23 01:41:13;;;;;;;13.40;11.00;;;8.70;99.90;;;;;;5082028;28;20194;-78
2022/04/23 01:43:41;;;;;;;16.70;13.17;;;8.60;99.90;;;;;;5083526;28;20317;-78
2022/04/23 01:46:07;;;;;;;15.67;12.33;;;8.60;99.90;;;;;;5076857;28;20190;-78
2022/04/23 01:48:34;;;;;;;16.13;11.83;;;8.60;99.90;;;;;;5070339;28;20220;-77
2022/04/23 01:51:01;;;;;;;13.43;11.50;;;8.60;99.90;;;;;;5079216;28;20202;-78
2022/04/23 01:53:28;;;;;;;13.63;11.80;;;8.60;99.90;;;;;;5082040;28;20611;-77
2022/04/23 01:55:57;;;;;;;13.73;12.13;;;8.50;99.90;;;;;;5080236;28;20194;-78
2022/04/23 01:58:24;;;;;;;15.13;13.63;;;8.40;99.90;;;;;;5079075;28;20201;-78
2022/04/23 02:00:52;;;;;;;17.13;15.33;;;8.30;99.90;;;;;;5081784;28;20198;-78
2022/04/23 02:03:19;;;;;;;15.07;12.43;;;8.20;99.90;;;;;;5082957;28;20228;-78
2022/04/23 02:05:46;;;;;;;18.07;14.60;;;8.20;99.90;;;;;;5077478;28;20190;-78
2022/04/23 02:08:15;;;;;;;18.70;16.80;;;8.20;99.90;;;;;;5092020;28;20242;-77
2022/04/23 02:10:43;;;;;;;12.57;10.70;;;8.10;99.90;;;;;;5078424;28;20202;-77
2022/04/23 02:13:12;;;;;;;16.57;11.97;;;8.10;99.90;;;;;;5078013;28;20300;-78
2022/04/23 02:15:40;;;;;;;16.30;12.93;;;8.10;99.90;;;;;;5077782;28;20288;-78
2022/04/23 02:18:08;;;;;;;15.53;13.93;;;8.10;99.90;;;;;;5078197;28;20281;-78
2022/04/23 02:20:35;;;;;;;16.20;14.50;;;8.00;99.90;;;;;;5085576;28;20648;-77
2022/04/23 02:23:02;;;;;;;17.07;15.20;;;8.00;99.90;;;;;;5082788;28;20216;-77
2022/04/23 02:25:29;;;;;;;17.60;15.70;;;7.90;99.90;;;;;;5069974;28;20195;-78
2022/04/23 02:27:56;;;;;;;16.03;12.83;;;7.90;99.90;;;;;;5095430;28;20907;-77
2022/04/23 02:30:24;;;;;;;18.97;14.97;;;7.90;99.90;;;;;;5082315;28;20197;-78
2022/04/23 02:32:51;;;;;;;18.13;14.33;;;7.80;99.90;;;;;;5084967;28;20213;-78
2022/04/23 02:35:20;;;;;;;17.97;15.57;;;7.80;99.90;;;;;;5085607;28;20296;-78
2022/04/23 02:37:47;;;;;;;15.53;13.80;;;7.80;99.90;;;;;;5087786;28;20219;-76
2022/04/23 02:40:15;;;;;;;15.10;13.43;;;7.60;99.90;;;;;;5079346;28;20230;-78
2022/04/23 02:42:42;;;;;;;17.67;15.10;;;7.60;99.90;;;;;;5084881;28;20237;-78
2022/04/23 02:45:11;;;;;;;18.07;16.00;;;7.60;99.90;;;;;;5084588;28;20210;-78
2022/04/23 02:47:46;;;;;;;17.70;15.77;;;7.60;99.90;;;;;;5080776;28;20513;-78
2022/04/23 02:50:15;;;;;;;18.17;16.30;;;7.50;99.90;;;;;;5074996;28;20575;-78
2022/04/23 02:52:44;;;;;;;16.20;14.50;;;7.50;99.90;;;;;;5084069;28;20229;-77
2022/04/23 02:55:12;;;;;;;19.23;17.23;;;7.50;99.90;;;;;;5085272;28;20204;-78
2022/04/23 02:57:40;;;;;;;16.43;14.27;;;7.50;99.90;;;;;;5059715;28;20203;-77
2022/04/23 03:00:10;;;;;;;18.93;17.00;;;7.50;99.90;;;;;;5094098;28;20197;-77
2022/04/23 03:02:37;;;;;;;17.20;14.57;;;7.40;99.90;;;;;;5066391;28;20196;-76
2022/04/23 03:05:08;;;;;;;18.23;16.33;;;7.30;99.90;;;;;;5071317;28;20212;-78
2022/04/23 03:07:35;;;;;;;17.10;14.80;;;7.30;99.90;;;;;;5066600;28;20211;-78
2022/04/23 03:10:03;;;;;;;18.87;15.00;;;7.30;99.90;;;;;;5080284;28;20601;-78
2022/04/23 03:12:30;;;;;;;18.70;15.33;;;7.20;99.90;;;;;;5080204;28;20217;-78
2022/04/23 03:14:57;;;;;;;21.60;16.27;;;7.20;99.90;;;;;;5084656;28;20222;-78
2022/04/23 03:17:24;;;;;;;20.20;15.10;;;7.20;99.90;;;;;;5087765;28;20205;-80
2022/04/23 03:19:51;;;;;;;17.67;14.57;;;7.20;99.90;;;;;;5064671;28;20191;-80
2022/04/23 03:22:21;;;;;;;18.53;15.07;;;7.10;99.90;;;;;;5073050;28;20216;-80
2022/04/23 03:24:48;;;;;;;20.37;16.73;;;7.10;99.90;;;;;;5068525;28;20224;-80
2022/04/23 03:27:15;;;;;;;19.50;15.37;;;7.10;99.90;;;;;;5081086;28;20201;-80
2022/04/23 03:29:42;;;;;;;19.00;14.93;;;7.10;99.90;;;;;;5073150;28;20211;-78
2022/04/23 03:32:10;;;;;;;20.73;18.53;;;7.10;99.90;;;;;;5083951;28;20224;-78
2022/04/23 03:34:38;;;;;;;21.43;17.43;;;7.10;99.90;;;;;;5070604;28;20219;-78
2022/04/23 03:37:06;;;;;;;21.77;18.70;;;7.10;99.90;;;;;;5082894;28;20196;-79
2022/04/23 03:39:34;;;;;;;21.60;17.37;;;7.10;99.90;;;;;;5083411;28;20206;-79
2022/04/23 03:42:02;;;;;;;22.93;19.90;;;7.10;99.90;;;;;;5089497;28;20230;-79
2022/04/23 03:44:29;;;;;;;22.27;19.97;;;7.00;99.90;;;;;;5087044;28;20664;-78
2022/04/23 03:46:57;;;;;;;23.07;18.20;;;7.00;99.90;;;;;;5088409;28;20206;-78
2022/04/23 03:49:24;;;;;;;20.30;16.97;;;6.90;99.90;;;;;;5076053;28;20195;-76
2022/04/23 03:51:52;;;;;;;22.70;18.13;;;6.90;99.90;;;;;;5080836;28;20624;-80
2022/04/23 03:54:19;;;;;;;23.77;18.70;;;6.80;99.90;;;;;;5080364;28;20240;-79
2022/04/23 03:56:47;;;;;;;23.13;19.27;;;6.80;99.90;;;;;;5077531;28;20639;-79
2022/04/23 03:59:20;;;;;;;21.20;17.07;;;6.80;99.90;;;;;;5087012;28;20203;-79
2022/04/23 04:01:47;;;;;;;22.73;17.77;;;6.70;99.90;;;;;;5081776;28;20203;-78
2022/04/23 04:04:15;;;;;;;22.23;18.60;;;6.70;99.90;;;;;;5079111;28;20241;-79
2022/04/23 04:06:42;;;;;;;23.30;18.70;;;6.80;99.90;;;;;;5083855;28;20198;-80
2022/04/23 04:09:09;;;;;;;22.13;18.07;;;6.80;99.90;;;;;;5089987;28;20199;-78
2022/04/23 04:14:19;;;;;;;21.17;16.07;;;6.70;99.90;;;;;;5081655;28;20223;-79
2022/04/23 04:16:46;;;;;;;23.27;18.90;;;6.70;99.90;;;;;;5081908;28;20241;-79
2022/04/23 04:19:14;;;;;;;21.73;16.83;;;6.70;99.90;;;;;;5076947;28;20216;-79
2022/04/23 04:21:43;;;;;;;23.87;18.87;;;6.60;99.90;;;;;;5081815;28;20192;-80
2022/04/23 04:24:12;;;;;;;21.33;17.03;;;6.70;99.90;;;;;;5082760;28;20275;-79
2022/04/23 04:26:40;;;;;;;21.57;16.87;;;6.70;99.90;;;;;;5086201;28;20657;-80
2022/04/23 04:29:07;;;;;;;20.10;16.43;;;6.80;99.90;;;;;;5085819;28;20201;-79
2022/04/23 04:31:49;;;;;;;25.97;19.77;;;6.80;99.90;;;;;;5082800;28;20202;-80
2022/04/23 04:34:17;;;;;;;24.13;18.60;;;6.90;99.90;;;;;;5081210;28;20334;-80
2022/04/23 04:36:44;;;;;;;20.93;17.00;;;7.00;99.90;;;;;;5073094;28;20643;-79
2022/04/23 04:39:11;;;;;;;24.87;19.40;;;7.00;99.90;;;;;;5072449;28;20786;-79
2022/04/23 04:41:38;;;;;;;26.80;22.60;;;7.20;99.90;;;;;;5085163;28;20227;-79
2022/04/23 04:44:06;;;;;;;21.10;17.53;;;7.20;99.90;;;;;;5073156;28;20671;-79
2022/04/23 04:46:33;;;;;;;23.30;18.70;;;7.30;99.90;;;;;;5088535;28;20199;-79
2022/04/23 04:49:01;;;;;;;24.33;19.80;;;7.40;99.90;;;;;;5074135;28;20205;-78
2022/04/23 04:51:28;;;;;;;20.40;17.53;;;7.50;99.90;;;;;;5068281;28;20249;-80
2022/04/23 04:53:56;;;;;;;23.53;18.57;;;7.50;99.90;;;;;;5081244;28;20236;-79
2022/04/23 04:56:23;;;;;;;23.83;18.67;;;7.60;99.90;;;;;;5082687;28;20204;-79
2022/04/23 04:58:50;;;;;;;22.07;18.93;;;7.70;99.90;;;;;;5082562;28;20767;-79
2022/04/23 05:01:17;;;;;;;22.87;20.43;;;7.80;99.90;;;;;;5078048;28;20217;-79
2022/04/23 05:03:44;;;;;;;19.83;17.73;;;8.00;99.90;;;;;;5080108;28;20307;-80
2022/04/23 05:06:13;;;;;;;20.63;18.00;;;8.10;99.90;;;;;;5074532;28;20194;-79
2022/04/23 05:08:40;;;;;;;20.93;17.53;;;8.20;99.90;;;;;;5082609;28;20296;-80
2022/04/23 05:11:07;;;;;;;19.00;17.00;;;8.30;99.90;;;;;;5075827;28;20315;-77
2022/04/23 05:13:34;;;;;;;21.03;18.27;;;8.40;99.90;;;;;;5069272;28;20214;-81
2022/04/23 05:16:02;;;;;;;21.80;19.47;;;8.50;99.90;;;;;;5080961;28;20244;-79
2022/04/23 05:18:29;;;;;;;25.33;21.27;;;8.50;99.90;;;;;;5074970;28;20577;-78
2022/04/23 05:20:56;;;;;;;20.33;17.97;;;8.50;99.90;;;;;;5087495;28;20292;-78
2022/04/23 05:23:24;;;;;;;21.30;17.33;;;8.50;99.90;;;;;;5085512;28;20213;-80
2022/04/23 05:25:51;;;;;;;20.43;16.90;;;8.50;99.90;;;;;;5085760;28;20204;-79
2022/04/23 05:28:18;;;;;;;20.20;17.33;;;8.60;99.90;;;;;;5070277;28;20690;-79
2022/04/23 05:30:45;;;;;;;18.97;16.37;;;8.80;99.90;;;;;;5089342;28;20273;-79
2022/04/23 05:33:12;;;;;;;19.70;16.63;;;8.90;99.90;;;;;;5074085;28;20765;-81
2022/04/23 05:35:39;;;;;;;19.30;16.43;;;8.90;99.90;;;;;;5086452;28;20670;-80
2022/04/23 05:38:07;;;;;;;21.23;17.63;;;9.00;99.90;;;;;;5084574;28;20204;-82
2022/04/23 05:40:35;;;;;;;17.50;15.63;;;9.00;99.90;;;;;;5076947;28;20198;-77
2022/04/23 05:43:02;;;;;;;17.33;15.50;;;9.10;99.90;;;;;;5080627;28;20229;-79
2022/04/23 05:45:30;;;;;;;19.23;16.20;;;9.20;99.90;;;;;;5084298;28;20198;-80
2022/04/23 05:47:58;;;;;;;19.83;17.73;;;9.30;99.90;;;;;;5086674;28;20264;-79
2022/04/23 05:50:25;;;;;;;19.77;17.70;;;9.40;99.90;;;;;;5078991;28;20196;-80
2022/04/23 05:52:53;;;;;;;17.60;15.80;;;9.50;99.90;;;;;;5083749;28;20225;-83
2022/04/23 05:55:20;;;;;;;16.30;14.53;;;9.80;99.90;;;;;;5079307;28;20238;-80
2022/04/23 05:57:48;;;;;;;19.23;16.17;;;9.90;99.90;;;;;;5098080;28;20185;-81
2022/04/23 06:00:16;;;;;;;15.83;14.20;;;10.00;99.90;;;;;;5087971;28;20807;-81
2022/04/23 06:02:43;;;;;;;18.10;16.20;;;10.30;99.90;;;;;;5080318;28;20672;-81
2022/04/23 06:05:10;;;;;;;16.00;14.23;;;10.50;99.90;;;;;;5081142;28;20286;-81
2022/04/23 06:07:37;;;;;;;15.27;13.73;;;10.60;99.90;;;;;;5077360;28;20224;-84
2022/04/23 06:10:06;;;;;;;13.90;12.43;;;10.80;99.90;;;;;;5084276;28;20945;-80
2022/04/23 06:12:34;;;;;;;14.30;12.80;;;11.00;99.90;;;;;;5089011;28;20286;-81
2022/04/23 06:15:02;;;;;;;12.57;11.27;;;10.90;99.90;;;;;;5090820;28;20201;-81
2022/04/23 06:17:29;;;;;;;14.53;12.43;;;11.10;99.90;;;;;;5089603;28;20198;-81
2022/04/23 06:19:57;;;;;;;13.67;11.97;;;11.10;99.90;;;;;;5083127;28;20297;-81
2022/04/23 06:22:24;;;;;;;13.67;12.17;;;11.10;99.90;;;;;;5086716;28;20215;-82
2022/04/23 06:24:52;;;;;;;12.70;11.03;;;11.20;99.90;;;;;;5089632;28;20203;-83
2022/04/23 06:27:19;;;;;;;10.93;9.83;;;11.30;99.90;;;;;;5089407;28;20284;-82
2022/04/23 06:29:46;;;;;;;13.40;11.63;;;11.50;99.90;;;;;;5077034;28;20199;-82
2022/04/23 06:32:14;;;;;;;12.13;10.03;;;11.50;99.90;;;;;;5092629;28;20578;-81
2022/04/23 06:34:41;;;;;;;11.30;10.10;;;11.70;99.90;;;;;;5074780;28;20226;-82
2022/04/23 06:37:09;;;;;;;11.23;9.90;;;11.90;99.90;;;;;;5082683;28;20232;-82
2022/04/23 06:39:36;;;;;;;10.33;8.23;;;11.90;99.90;;;;;;5084651;28;20196;-82
2022/04/23 06:42:04;;;;;;;11.00;9.90;;;12.00;99.90;;;;;;5084249;28;20581;-82
2022/04/23 06:44:31;;;;;;;10.53;9.47;;;12.10;99.90;;;;;;5081666;28;20235;-82
2022/04/23 06:46:58;;;;;;;10.70;9.33;;;12.00;99.90;;;;;;5102398;28;20199;-82
2022/04/23 06:49:27;;;;;;;10.43;9.07;;;12.10;99.90;;;;;;5082212;28;20193;-81
2022/04/23 06:51:54;;;;;;;9.70;8.63;;;12.00;99.90;;;;;;5081402;28;20255;-82
2022/04/23 06:54:22;;;;;;;9.27;8.27;;;12.10;99.90;;;;;;5093081;28;20225;-81
2022/04/23 06:56:48;;;;;;;9.93;9.03;;;12.20;99.90;;;;;;5080491;28;20201;-80
2022/04/23 06:59:16;;;;;;;11.10;8.93;;;12.00;99.90;;;;;;5086150;28;20200;-81
2022/04/23 07:01:43;;;;;;;11.37;9.33;;;12.00;99.90;;;;;;5082211;28;20192;-82
2022/04/23 07:04:10;;;;;;;9.60;8.70;;;11.90;99.90;;;;;;5081223;28;20229;-81
2022/04/23 07:06:38;;;;;;;10.00;8.13;;;12.00;99.90;;;;;;5074698;28;20290;-80
2022/04/23 07:09:06;;;;;;;9.23;8.33;;;12.00;99.90;;;;;;5077449;28;20250;-81
2022/04/23 07:11:33;;;;;;;9.30;8.40;;;12.10;99.90;;;;;;5078860;28;20214;-81
2022/04/23 07:14:00;;;;;;;8.23;7.47;;;12.20;99.90;;;;;;5080795;28;20217;-80
2022/04/23 07:16:27;;;;;;;8.40;7.50;;;12.50;99.90;;;;;;5082761;28;20292;-78
2022/04/23 07:18:54;;;;;;;8.47;7.50;;;12.50;99.90;;;;;;5078201;28;20209;-79
2022/04/23 07:21:22;;;;;;;8.03;6.83;;;12.60;99.90;;;;;;5083374;28;20189;-79
2022/04/23 07:24:10;;;;;;;7.57;6.80;;;12.60;99.90;;;;;;5084596;28;20221;-80
2022/04/23 07:26:38;;;;;;;9.93;7.40;;;12.50;99.90;;;;;;5074466;28;20206;-78
2022/04/23 07:29:07;;;;;;;7.30;6.33;;;12.50;99.90;;;;;;5077340;28;20202;-78
2022/04/23 07:31:35;;;;;;;7.47;6.50;;;12.50;99.90;;;;;;5083336;28;20247;-77
2022/04/23 07:39:34;;;;;;;8.17;7.27;;;13.00;99.90;;;;;;5093532;28;20197;-79
2022/04/23 07:42:01;;;;;;;8.00;7.20;;;13.10;99.90;;;;;;5079800;28;20206;-81
2022/04/23 07:44:28;;;;;;;8.70;7.63;;;13.00;99.90;;;;;;5076032;28;20252;-81
2022/04/23 07:46:55;;;;;;;7.57;6.77;;;13.00;99.90;;;;;;5074498;28;20202;-81
2022/04/23 07:49:22;;;;;;;7.20;6.50;;;13.10;99.90;;;;;;5062419;28;20191;-81
2022/04/23 07:51:50;;;;;;;7.50;6.72;;;13.30;99.90;;;;;;5070584;28;20447;-82
2022/04/23 07:54:17;;;;;;;6.90;6.20;;;13.60;99.90;;;;;;5080394;28;20646;-82
2022/04/23 07:56:45;;;;;;;6.73;6.03;;;14.00;99.90;;;;;;5076149;28;20225;-82
2022/04/23 07:59:12;;;;;;;9.77;7.37;;;14.40;99.90;;;;;;5068866;28;20203;-82
2022/04/23 08:01:40;;;;;;;7.40;6.60;;;14.20;99.90;;;;;;5083485;28;20207;-84
2022/04/23 08:04:07;;;;;;;9.00;8.10;;;14.30;99.90;;;;;;5069066;28;20303;-80
2022/04/23 08:06:35;;;;;;;8.20;7.30;;;14.40;99.90;;;;;;5077633;28;20198;-80
2022/04/23 08:09:03;;;;;;;8.23;7.30;;;14.50;99.90;;;;;;5081885;28;20196;-81
2022/04/23 08:11:30;;;;;;;7.93;7.13;;;14.50;99.90;;;;;;5077233;28;20838;-81
2022/04/23 08:14:00;;;;;;;7.70;6.90;;;14.40;99.90;;;;;;5081606;28;20299;-81
2022/04/23 08:16:53;;;;;;;7.27;6.40;;;14.40;99.90;;;;;;5086133;28;20233;-81
2022/04/23 08:19:40;;;;;;;7.63;6.70;;;14.40;99.90;;;;;;5076881;28;20226;-80
2022/04/23 08:22:15;;;;;;;7.30;6.60;;;14.10;99.90;;;;;;5090109;28;20204;-79
2022/04/23 08:25:04;;;;;;;7.40;6.63;;;14.00;99.90;;;;;;5082303;28;20196;-80
2022/04/23 08:30:34;;;;;;;8.07;6.73;;;14.10;99.90;;;;;;5085019;28;20207;-80
2022/04/23 08:30:45;;;;;;;7.53;6.77;;;13.90;99.90;;;;;;5085338;28;20195;-80
2022/04/23 08:33:13;;;;;;;7.77;6.97;;;13.80;99.90;;;;;;5081896;28;20222;-78
2022/04/23 08:35:40;;;;;;;8.73;6.47;;;14.20;99.90;;;;;;5074695;28;20294;-79
2022/04/23 08:38:09;;;;;;;6.87;6.17;;;14.50;99.90;;;;;;5067446;28;20202;-77
2022/04/23 08:40:37;;;;;;;9.37;8.47;;;14.60;99.90;;;;;;5080908;28;20197;-78
2022/04/23 08:43:06;;;;;;;9.80;8.90;;;14.50;99.90;;;;;;5068043;28;20558;-78
2022/04/23 08:45:36;;;;;;;10.83;9.93;;;14.50;99.90;;;;;;5085732;28;20207;-78
2022/04/23 08:48:09;;;;;;;9.97;9.17;;;14.60;99.90;;;;;;5078487;28;20576;-78
2022/04/23 08:50:37;;;;;;;10.67;9.67;;;14.70;99.90;;;;;;5086203;28;20200;-77
2022/04/23 08:53:09;;;;;;;10.67;9.77;;;14.90;99.90;;;;;;5078835;28;20221;-78
2022/04/23 08:55:36;;;;;;;11.20;9.93;;;14.70;99.90;;;;;;5084709;28;20669;-78
2022/04/23 08:58:03;;;;;;;10.30;9.40;;;14.50;99.90;;;;;;5084984;28;20579;-78
2022/04/23 09:00:30;;;;;;;10.20;9.30;;;14.40;99.90;;;;;;5082129;28;20258;-76
2022/04/23 09:02:59;;;;;;;10.43;9.53;;;14.70;99.90;;;;;;5083606;28;20215;-78
2022/04/23 09:05:28;;;;;;;10.53;9.63;;;14.90;99.90;;;;;;5091819;28;20294;-78
2022/04/23 09:07:57;;;;;;;10.80;9.80;;;15.10;99.90;;;;;;5080646;28;20204;-80
2022/04/23 09:10:43;;;;;;;10.10;9.20;;;15.00;99.90;;;;;;5097408;28;20197;-80
2022/04/23 09:13:10;;;;;;;10.73;9.77;;;15.30;99.90;;;;;;5078443;28;20297;-81
2022/04/23 09:24:10;;;;;;;9.30;7.80;;;15.40;99.90;;;;;;5096172;28;20248;-78
2022/04/23 09:26:41;;;;;;;11.83;10.63;;;15.10;99.90;;;;;;5070546;28;20228;-78
2022/04/23 09:29:16;;;;;;;10.80;9.83;;;15.10;99.90;;;;;;5082693;28;20691;-79
2022/04/23 09:31:43;;;;;;;12.10;11.00;;;15.10;99.90;;;;;;5068266;28;20288;-79
2022/04/23 09:34:17;;;;;;;10.93;9.93;;;14.80;99.90;;;;;;5077676;28;20598;-77
2022/04/23 09:36:49;;;;;;;11.63;10.63;;;14.80;99.90;;;;;;5075135;28;20293;-79
2022/04/23 09:39:31;;;;;;;11.57;10.23;;;15.10;99.90;;;;;;5071817;28;20301;-78
2022/04/23 09:42:13;;;;;;;11.57;10.47;;;15.20;99.90;;;;;;5079100;28;20280;-78
2022/04/23 09:44:41;;;;;;;9.53;8.53;;;15.80;99.90;;;;;;5068542;28;20214;-78
2022/04/23 09:47:08;;;;;;;11.40;10.30;;;16.20;99.90;;;;;;5075307;28;20311;-78
2022/04/23 09:49:35;;;;;;;9.83;8.93;;;16.30;99.90;;;;;;5083226;28;20296;-79
2022/04/23 09:52:06;;;;;;;10.17;9.27;;;16.30;99.90;;;;;;5082355;28;20281;-78
2022/04/23 09:54:39;;;;;;;11.23;10.03;;;16.40;99.90;;;;;;5081059;28;20253;-78
2022/04/23 09:57:15;;;;;;;11.63;10.43;;;16.20;99.90;;;;;;5085499;28;20202;-81
2022/04/23 09:59:43;;;;;;;10.97;9.97;;;16.10;99.90;;;;;;5090987;28;20212;-81
2022/04/23 10:02:15;;;;;;;12.63;11.30;;;15.80;99.90;;;;;;5074831;28;20197;-81
2022/04/23 10:04:43;;;;;;;11.53;10.43;;;15.80;99.90;;;;;;5091111;28;20218;-82
2022/04/23 10:07:11;;;;;;;12.60;11.47;;;16.10;99.90;;;;;;5075193;28;20607;-79
2022/04/23 10:09:41;;;;;;;13.43;12.03;;;16.20;99.90;;;;;;5074997;28;20201;-79
2022/04/23 10:12:09;;;;;;;12.47;11.17;;;16.00;99.90;;;;;;5069763;28;20202;-78
2022/04/23 10:14:51;;;;;;;10.93;9.93;;;15.90;99.90;;;;;;5081637;28;20565;-79
2022/04/23 10:17:20;;;;;;;12.77;11.47;;;16.00;99.90;;;;;;5079582;28;20185;-78
2022/04/23 10:19:48;;;;;;;9.20;8.20;;;16.30;99.90;;;;;;5069425;28;20198;-78
2022/04/23 10:22:22;;;;;;;9.63;8.73;;;16.60;99.90;;;;;;5076720;28;20682;-79
2022/04/23 10:25:00;;;;;;;13.53;11.77;;;16.70;99.90;;;;;;5097385;28;20196;-78
2022/04/23 10:27:28;;;;;;;12.00;10.80;;;16.20;99.90;;;;;;5086764;28;20220;-78
2022/04/23 10:30:02;;;;;;;12.90;11.70;;;15.90;99.90;;;;;;5083002;28;20202;-79
2022/04/23 10:32:38;;;;;;;11.27;10.17;;;15.90;99.90;;;;;;5086504;28;20202;-78
2022/04/23 10:35:35;;;;;;;13.30;12.03;;;15.80;99.90;;;;;;5074317;28;20210;-78
2022/04/23 10:38:21;;;;;;;14.83;12.37;;;15.70;99.90;;;;;;5068365;28;20194;-78
2022/04/23 10:41:12;;;;;;;14.10;12.60;;;15.40;99.90;;;;;;5060914;28;20221;-79
2022/04/23 10:43:48;;;;;;;12.90;11.70;;;15.20;99.90;;;;;;5080226;28;20708;-78
2022/04/23 10:46:46;;;;;;;12.83;11.63;;;15.10;99.90;;;;;;5085429;28;20208;-78
2022/04/23 10:49:15;;;;;;;13.87;12.57;;;15.20;99.90;;;;;;5071668;28;20285;-83
2022/04/23 10:51:50;;;;;;;12.70;11.50;;;15.10;99.90;;;;;;5070971;28;20293;-81
2022/04/23 10:54:21;;;;;;;12.60;11.50;;;14.90;99.90;;;;;;5073163;28;20211;-83
2022/04/23 10:56:54;;;;;;;14.03;12.73;;;15.10;99.90;;;;;;5076874;28;20213;-80
2022/04/23 10:59:38;;;;;;;14.33;12.90;;;15.40;99.90;;;;;;5067296;28;20202;-79
2022/04/23 11:02:27;;;;;;;14.33;12.93;;;15.50;99.90;;;;;;5091183;28;20693;-80
2022/04/23 11:13:26;;;;;;;15.17;13.77;;;16.00;99.90;;;;;;5062121;28;20230;-82
2022/04/23 11:16:25;;;;;;;13.83;12.53;;;15.80;99.90;;;;;;5094184;28;20220;-81
2022/04/23 11:18:53;;;;;;;11.23;10.23;;;15.80;99.90;;;;;;5075824;28;20201;-81
2022/04/23 11:21:23;;;;;;;10.63;9.53;;;16.20;99.90;;;;;;5081811;28;20185;-81
2022/04/23 11:23:51;;;;;;;12.53;11.33;;;16.50;99.90;;;;;;5093060;28;20209;-82
2022/04/23 11:26:22;;;;;;;14.37;12.43;;;16.80;99.90;;;;;;5088883;28;20197;-81
2022/04/23 11:28:58;;;;;;;15.00;13.60;;;16.30;99.90;;;;;;5079038;28;20658;-81
2022/04/23 11:31:26;;;;;;;14.20;12.90;;;15.60;99.90;;;;;;5080192;28;20280;-82
2022/04/23 11:33:54;;;;;;;13.47;12.07;;;15.50;99.90;;;;;;5093029;28;20677;-82
2022/04/23 11:36:27;;;;;;;15.23;13.67;;;15.40;99.90;;;;;;5100989;28;20229;-83
2022/04/23 11:38:54;;;;;;;14.43;13.03;;;15.50;99.90;;;;;;5080193;28;20203;-83
2022/04/23 11:41:30;;;;;;;14.03;12.73;;;15.10;99.90;;;;;;5089769;28;20201;-82
2022/04/23 11:43:57;;;;;;;15.80;14.33;;;15.00;99.90;;;;;;5082575;28;20314;-83
2022/04/23 11:46:24;;;;;;;12.00;10.80;;;14.80;99.90;;;;;;5081627;28;20670;-81
2022/04/23 11:48:51;;;;;;;11.50;10.27;;;14.70;99.90;;;;;;5082376;28;20204;-80
2022/04/23 11:51:21;;;;;;;9.73;8.50;;;14.80;99.90;;;;;;5074856;28;20258;-79
2022/04/23 11:53:52;;;;;;;11.33;10.33;;;15.10;99.90;;;;;;5082437;28;20216;-79
2022/04/23 11:56:32;;;;;;;11.27;10.17;;;15.50;99.90;;;;;;5077176;28;20260;-82
2022/04/23 11:59:05;;;;;;;10.43;9.43;;;16.00;99.90;;;;;;5097957;28;20193;-84
2022/04/23 12:01:32;;;;;;;12.60;11.40;;;16.20;99.90;;;;;;5080890;28;20736;-83
2022/04/23 12:04:00;;;;;;;12.47;11.27;;;16.40;99.90;;;;;;5086052;28;20796;-83
2022/04/23 12:06:28;;;;;;;13.17;11.87;;;16.40;99.90;;;;;;5088799;28;20586;-84
2022/04/23 12:09:08;;;;;;;15.23;11.97;;;16.50;99.90;;;;;;5078181;28;20197;-84
2022/04/23 12:11:36;;;;;;;12.27;11.17;;;16.30;99.90;;;;;;5078797;28;20720;-83
2022/04/23 12:14:03;;;;;;;12.97;11.67;;;16.20;99.90;;;;;;5092401;28;20205;-82
2022/04/23 12:16:35;;;;;;;13.77;12.43;;;15.90;99.90;;;;;;5090149;28;20237;-83
2022/04/23 12:19:03;;;;;;;12.93;11.77;;;15.80;99.90;;;;;;5085232;28;20209;-81
2022/04/23 12:21:30;;;;;;;14.37;12.90;;;15.70;99.90;;;;;;5078856;28;20552;-83
2022/04/23 12:23:59;;;;;;;13.00;11.80;;;15.50;99.90;;;;;;5088194;28;20213;-83
2022/04/23 12:26:31;;;;;;;12.90;11.70;;;15.50;99.90;;;;;;5083901;28;20198;-84
2022/04/23 12:43:18;;;;;;;11.97;9.77;;;15.20;99.90;;;;;;5089762;28;20213;-79
2022/04/23 12:45:47;;;;;;;10.17;9.17;;;15.40;99.90;;;;;;5080599;28;20230;-79
2022/04/23 12:48:14;;;;;;;11.27;10.23;;;15.60;99.90;;;;;;5074499;28;20232;-79
2022/04/23 12:50:41;;;;;;;10.33;9.43;;;15.70;99.90;;;;;;5086263;28;20231;-77
2022/04/23 12:53:08;;;;;;;9.23;8.27;;;15.80;99.90;;;;;;5091621;28;20225;-82
2022/04/23 12:55:37;;;;;;;7.47;6.63;;;16.10;99.90;;;;;;5084056;28;20772;-78
2022/04/23 12:58:09;;;;;;;12.17;10.90;;;16.30;99.90;;;;;;5071056;28;20645;-79
2022/04/23 13:00:38;;;;;;;10.80;9.80;;;16.20;99.90;;;;;;5097848;28;20662;-80
2022/04/23 13:03:25;;;;;;;10.67;9.57;;;16.00;99.90;;;;;;5080905;28;20218;-79
2022/04/23 13:05:52;;;;;;;12.30;11.03;;;16.10;99.90;;;;;;5061062;28;20282;-79
2022/04/23 13:13:44;;;;;;;11.00;9.90;;;16.10;99.90;;;;;;5066766;28;20358;-80
2022/04/23 13:16:11;;;;;;;9.23;8.33;;;16.20;99.90;;;;;;5093248;28;20219;-81
2022/04/23 13:18:40;;;;;;;12.00;10.80;;;16.50;99.90;;;;;;5077924;28;20689;-79
2022/04/23 13:21:07;;;;;;;12.67;11.43;;;16.70;99.90;;;;;;5083236;28;20204;-78
2022/04/23 13:23:35;;;;;;;12.37;11.13;;;16.50;99.90;;;;;;5077898;28;20232;-78
2022/04/23 13:26:01;;;;;;;10.10;9.20;;;16.30;99.90;;;;;;5078446;28;20573;-80
2022/04/23 13:28:28;;;;;;;11.37;10.27;;;16.50;99.90;;;;;;5078547;28;20214;-79
2022/04/23 13:30:55;;;;;;;12.33;11.23;;;16.50;99.90;;;;;;5088269;28;20212;-78
2022/04/23 13:33:22;;;;;;;11.47;10.37;;;16.50;99.90;;;;;;5085845;28;20303;-79